Time;durP1;ratioP1;P1;durP2;ratioP2;P2;SDS_P1;SDS_P2;PMS_P1;PMS_P2;Temp;Humidity;BMP_temperature;BMP_pressure;BME280_temperature;BME280_humidity;BME280_pressure;Samples;Min_cycle;Max_cycle;Signal;HPM_P1;HPM_P2
2022/04/23 00:00:39;;;;;;;5.07;2.60;;;14.20;42.60;;;;;;2584432;52;21015;-87
2022/04/23 00:03:05;;;;;;;3.05;1.90;;;14.20;42.70;;;;;;2569877;52;20967;-86
2022/04/23 00:05:32;;;;;;;3.62;2.03;;;14.10;42.70;;;;;;2565024;52;21513;-86
2022/04/23 00:07:59;;;;;;;4.35;2.40;;;14.10;42.70;;;;;;2566715;52;21275;-85
2022/04/23 00:10:25;;;;;;;3.70;2.25;;;14.10;42.80;;;;;;2346561;53;21242;-86
2022/04/23 00:12:54;;;;;;;8.27;4.43;;;14.10;42.80;;;;;;2569101;52;21027;-86
2022/04/23 00:15:21;;;;;;;6.07;4.45;;;14.00;42.80;;;;;;2343788;53;21007;-86
2022/04/23 00:17:48;;;;;;;7.82;4.62;;;14.00;42.90;;;;;;2581347;52;21078;-86
2022/04/23 00:20:14;;;;;;;7.97;5.75;;;13.90;42.90;;;;;;2339813;53;20957;-87
2022/04/23 00:22:41;;;;;;;6.90;4.68;;;13.90;43.00;;;;;;2592338;52;20976;-86
2022/04/23 00:25:08;;;;;;;5.45;4.22;;;13.80;42.90;;;;;;2594713;53;21360;-86
2022/04/23 00:27:35;;;;;;;6.22;4.25;;;13.80;43.00;;;;;;2328866;55;20952;-86
2022/04/23 00:30:01;;;;;;;5.55;3.90;;;13.70;43.00;;;;;;2592995;53;21047;-86
2022/04/23 00:32:29;;;;;;;5.35;3.78;;;13.70;43.10;;;;;;2593673;53;22165;-85
2022/04/23 00:34:55;;;;;;;6.82;4.37;;;13.70;43.10;;;;;;2350016;54;20996;-86
2022/04/23 00:37:22;;;;;;;5.20;3.30;;;13.70;43.20;;;;;;2594749;53;20908;-86
2022/04/23 00:39:48;;;;;;;5.18;3.47;;;13.60;43.30;;;;;;2594819;53;21951;-86
2022/04/23 00:42:15;;;;;;;7.18;3.70;;;13.60;43.40;;;;;;2350581;54;21320;-86
2022/04/23 00:44:41;;;;;;;5.00;3.40;;;13.50;44.10;;;;;;2595658;53;21376;-85
2022/04/23 00:47:08;;;;;;;5.15;2.90;;;13.50;43.60;;;;;;2595734;53;20976;-85
2022/04/23 00:49:34;;;;;;;4.68;2.92;;;13.40;43.50;;;;;;2350797;54;20991;-87
2022/04/23 00:52:01;;;;;;;4.53;2.75;;;13.40;43.60;;;;;;2350548;54;20980;-85
2022/04/23 00:54:27;;;;;;;5.18;3.20;;;13.30;43.60;;;;;;2349864;54;21470;-86
2022/04/23 00:56:54;;;;;;;4.78;3.22;;;13.30;43.70;;;;;;2595696;53;20980;-87
2022/04/23 00:59:20;;;;;;;4.97;3.70;;;13.20;43.70;;;;;;2597659;53;20916;-85
2022/04/23 01:01:49;;;;;;;4.80;3.12;;;13.20;43.90;;;;;;2597454;53;20896;-86
2022/04/23 01:04:16;;;;;;;5.00;3.28;;;13.20;43.90;;;;;;2350776;54;20912;-86
2022/04/23 01:06:43;;;;;;;6.90;4.05;;;13.20;44.00;;;;;;2350578;54;21034;-86
2022/04/23 01:09:10;;;;;;;9.00;3.97;;;13.20;44.20;;;;;;2596916;53;21059;-86
2022/04/23 01:11:36;;;;;;;7.45;3.67;;;13.10;44.20;;;;;;2350680;54;21044;-86
2022/04/23 01:14:03;;;;;;;5.53;3.45;;;13.10;44.30;;;;;;2572898;52;21008;-85
2022/04/23 01:16:29;;;;;;;6.00;3.87;;;13.10;44.30;;;;;;2568013;52;20927;-86
2022/04/23 01:18:56;;;;;;;5.60;3.60;;;13.10;44.30;;;;;;2595864;53;20924;-86
2022/04/23 01:21:22;;;;;;;6.82;3.90;;;13.10;44.40;;;;;;2350869;54;21478;-85
2022/04/23 01:23:53;;;;;;;5.78;3.83;;;13.00;44.30;;;;;;2596027;53;20928;-86
2022/04/23 01:26:27;;;;;;;7.70;4.53;;;13.00;44.40;;;;;;2349233;54;20936;-86
2022/04/23 01:28:54;;;;;;;7.18;4.53;;;13.00;44.70;;;;;;2596602;53;22011;-86
2022/04/23 01:31:20;;;;;;;8.52;6.03;;;13.00;44.50;;;;;;2596215;53;20947;-85
2022/04/23 01:33:46;;;;;;;9.63;6.30;;;12.90;44.50;;;;;;2595736;53;20984;-86
2022/04/23 01:36:14;;;;;;;9.65;6.70;;;12.90;44.80;;;;;;2596313;53;20988;-84
2022/04/23 01:38:43;;;;;;;10.35;5.68;;;12.90;44.70;;;;;;2595707;53;20888;-85
2022/04/23 01:41:10;;;;;;;7.05;5.20;;;12.90;44.80;;;;;;2596772;53;20924;-86
2022/04/23 01:43:37;;;;;;;7.18;5.10;;;12.80;44.60;;;;;;2595518;53;21751;-86
2022/04/23 01:46:03;;;;;;;6.15;4.70;;;12.80;44.60;;;;;;2568734;52;21006;-85
2022/04/23 01:48:29;;;;;;;8.10;5.65;;;12.80;44.70;;;;;;2595229;53;21533;-86
2022/04/23 01:50:56;;;;;;;8.95;5.28;;;12.80;44.80;;;;;;2595949;53;20928;-85
2022/04/23 01:53:25;;;;;;;5.43;4.00;;;12.70;44.80;;;;;;2595141;53;20932;-85
2022/04/23 01:55:53;;;;;;;5.75;4.18;;;12.70;44.90;;;;;;2588733;52;21497;-85
2022/04/23 01:58:21;;;;;;;6.57;4.12;;;12.60;44.90;;;;;;2575777;52;20944;-85
2022/04/23 02:00:48;;;;;;;5.75;3.80;;;12.60;44.90;;;;;;2352711;53;21544;-85
2022/04/23 02:03:14;;;;;;;4.82;3.17;;;12.60;45.00;;;;;;2595065;53;21248;-84
2022/04/23 02:05:41;;;;;;;4.43;2.97;;;12.60;45.00;;;;;;2595039;53;20908;-85
2022/04/23 02:08:09;;;;;;;5.57;3.78;;;12.50;45.00;;;;;;2595579;53;21059;-85
2022/04/23 02:10:35;;;;;;;5.72;3.70;;;12.50;45.10;;;;;;2346021;53;21022;-85
2022/04/23 02:13:01;;;;;;;5.15;3.03;;;12.50;45.20;;;;;;2569186;52;21955;-86
2022/04/23 02:15:28;;;;;;;4.57;3.08;;;12.50;45.30;;;;;;2578148;52;20907;-85
2022/04/23 02:17:54;;;;;;;4.18;3.00;;;12.40;45.30;;;;;;2574708;52;21054;-86
2022/04/23 02:20:22;;;;;;;4.32;2.53;;;12.40;45.30;;;;;;2344625;53;21023;-86
2022/04/23 02:22:49;;;;;;;4.80;3.00;;;12.40;45.30;;;;;;2595695;53;21765;-85
2022/04/23 02:25:16;;;;;;;5.32;2.72;;;12.40;45.30;;;;;;2596179;53;20939;-85
2022/04/23 02:27:44;;;;;;;4.57;2.75;;;12.30;45.20;;;;;;2593152;53;20966;-85
2022/04/23 02:30:12;;;;;;;5.00;3.22;;;12.30;45.30;;;;;;2571044;52;20979;-84
2022/04/23 02:32:38;;;;;;;5.30;3.45;;;12.30;45.30;;;;;;2591780;52;20939;-85
2022/04/23 02:35:05;;;;;;;5.28;3.47;;;12.30;46.00;;;;;;2596204;53;20987;-87
2022/04/23 02:37:34;;;;;;;5.47;3.87;;;12.30;45.50;;;;;;2595520;53;20920;-85
2022/04/23 02:40:12;;;;;;;5.62;3.42;;;12.20;45.40;;;;;;2595743;53;21547;-86
2022/04/23 02:42:39;;;;;;;4.97;3.25;;;12.20;46.50;;;;;;2594278;53;21083;-86
2022/04/23 02:45:09;;;;;;;4.80;3.40;;;12.10;45.40;;;;;;2349300;54;20994;-86
2022/04/23 02:47:50;;;;;;;4.60;2.92;;;12.10;45.70;;;;;;2594333;53;20912;-84
2022/04/23 02:50:31;;;;;;;4.50;3.00;;;12.10;45.80;;;;;;2594502;53;21357;-86
2022/04/23 02:52:58;;;;;;;4.65;2.97;;;12.10;45.80;;;;;;2594377;53;20983;-86
2022/04/23 02:55:25;;;;;;;4.62;3.05;;;12.00;45.60;;;;;;2565960;53;21000;-86
2022/04/23 02:57:52;;;;;;;5.45;3.28;;;12.00;45.70;;;;;;2594815;53;21011;-85
2022/04/23 03:00:19;;;;;;;4.95;3.67;;;11.90;45.70;;;;;;2349138;54;20909;-86
2022/04/23 03:02:55;;;;;;;6.40;3.47;;;11.90;45.70;;;;;;2595928;53;21047;-86
2022/04/23 03:05:21;;;;;;;4.62;3.22;;;11.90;46.00;;;;;;2331396;53;20907;-85
2022/04/23 03:07:48;;;;;;;4.45;3.12;;;11.80;45.80;;;;;;2595128;53;21441;-85
2022/04/23 03:10:15;;;;;;;6.12;3.37;;;11.80;45.80;;;;;;2586199;52;21393;-86
2022/04/23 03:12:42;;;;;;;4.00;2.72;;;11.80;45.90;;;;;;2578338;52;20952;-85
2022/04/23 03:15:13;;;;;;;5.15;2.92;;;11.80;46.00;;;;;;2595785;52;20972;-86
2022/04/23 03:17:39;;;;;;;4.70;2.97;;;11.80;46.00;;;;;;2595732;53;20893;-86
2022/04/23 03:20:10;;;;;;;5.12;3.15;;;11.70;45.90;;;;;;2351044;54;20983;-85
2022/04/23 03:22:37;;;;;;;5.00;3.47;;;11.70;45.90;;;;;;2595825;53;21077;-85
2022/04/23 03:25:05;;;;;;;4.80;3.33;;;11.70;46.00;;;;;;2350263;54;20912;-85
2022/04/23 03:27:32;;;;;;;5.18;2.97;;;11.70;46.00;;;;;;2582608;52;21300;-86
2022/04/23 03:29:58;;;;;;;4.32;2.60;;;11.60;46.00;;;;;;2341922;53;20944;-86
2022/04/23 03:32:26;;;;;;;4.75;2.97;;;11.60;46.00;;;;;;2589632;52;20913;-86
2022/04/23 03:34:52;;;;;;;6.35;3.30;;;11.60;46.10;;;;;;2330704;53;21560;-84
2022/04/23 03:37:19;;;;;;;4.45;2.90;;;11.60;46.10;;;;;;2596172;53;20939;-86
2022/04/23 03:39:46;;;;;;;5.43;3.45;;;11.50;46.10;;;;;;2349964;54;21814;-86
2022/04/23 03:42:13;;;;;;;5.78;3.65;;;11.50;46.10;;;;;;2581466;52;20912;-85
2022/04/23 03:44:39;;;;;;;5.60;3.55;;;11.50;46.10;;;;;;2583127;52;20927;-86
2022/04/23 03:47:06;;;;;;;4.72;3.03;;;11.40;46.10;;;;;;2596015;53;20964;-86
2022/04/23 03:49:33;;;;;;;5.45;3.22;;;11.40;46.10;;;;;;2338545;53;20927;-86
2022/04/23 03:52:00;;;;;;;4.50;3.10;;;11.40;46.20;;;;;;2352921;53;20901;-85
2022/04/23 03:54:26;;;;;;;5.12;3.42;;;11.40;46.20;;;;;;2595740;53;20908;-85
2022/04/23 03:56:53;;;;;;;5.00;3.40;;;11.30;46.10;;;;;;2596362;53;20940;-86
2022/04/23 03:59:21;;;;;;;4.03;2.50;;;11.30;46.20;;;;;;2350461;54;20920;-86
2022/04/23 04:01:48;;;;;;;5.53;3.70;;;11.30;46.20;;;;;;2593826;53;20948;-86
2022/04/23 04:04:15;;;;;;;4.72;3.15;;;11.20;46.10;;;;;;2595365;53;21542;-85
2022/04/23 04:06:42;;;;;;;4.40;2.95;;;11.20;46.20;;;;;;2595070;53;20968;-86
2022/04/23 04:09:08;;;;;;;5.68;3.45;;;11.10;46.10;;;;;;2348373;54;20955;-85
2022/04/23 04:14:19;;;;;;;4.90;3.25;;;11.00;46.10;;;;;;2592889;52;20971;-86
2022/04/23 04:16:45;;;;;;;5.03;3.30;;;11.00;46.20;;;;;;2595511;53;20923;-85
2022/04/23 04:19:15;;;;;;;4.25;2.67;;;11.00;46.30;;;;;;2575463;53;20970;-86
2022/04/23 04:21:43;;;;;;;4.15;2.95;;;10.90;46.30;;;;;;2589782;52;20994;-86
2022/04/23 04:24:16;;;;;;;4.95;3.25;;;10.90;46.30;;;;;;2350389;54;21254;-86
2022/04/23 04:26:47;;;;;;;5.95;3.53;;;10.90;46.50;;;;;;2567936;53;21299;-85
2022/04/23 04:29:13;;;;;;;5.53;3.50;;;10.90;46.50;;;;;;2324307;54;21841;-86
2022/04/23 04:31:49;;;;;;;5.47;3.90;;;10.90;46.60;;;;;;2581724;52;21773;-86
2022/04/23 04:34:17;;;;;;;5.50;3.53;;;10.80;46.60;;;;;;2593783;53;20917;-85
2022/04/23 04:36:44;;;;;;;5.10;3.37;;;10.80;46.50;;;;;;2596786;53;21031;-85
2022/04/23 04:39:11;;;;;;;5.07;3.22;;;10.80;46.60;;;;;;2350234;54;21391;-85
2022/04/23 04:41:37;;;;;;;6.22;3.30;;;10.80;46.60;;;;;;2596637;53;21465;-85
2022/04/23 04:44:05;;;;;;;6.47;3.95;;;10.70;46.60;;;;;;2348661;54;20948;-84
2022/04/23 04:46:35;;;;;;;4.50;3.20;;;10.70;46.70;;;;;;2593614;53;20923;-84
2022/04/23 04:49:02;;;;;;;5.80;3.40;;;10.70;46.90;;;;;;2593361;53;20913;-84
2022/04/23 04:51:28;;;;;;;5.45;3.30;;;10.70;46.90;;;;;;2594236;53;21739;-84
2022/04/23 04:53:55;;;;;;;5.97;3.70;;;10.70;47.00;;;;;;2348012;54;20967;-85
2022/04/23 04:56:22;;;;;;;4.82;3.40;;;10.70;46.90;;;;;;2566690;52;20927;-86
2022/04/23 04:58:50;;;;;;;6.87;3.62;;;10.70;47.10;;;;;;2594560;53;21398;-84
2022/04/23 05:01:17;;;;;;;6.75;4.12;;;10.70;47.20;;;;;;2594691;53;20944;-85
2022/04/23 05:03:43;;;;;;;7.12;4.22;;;10.70;47.30;;;;;;2347453;54;20976;-85
2022/04/23 05:06:10;;;;;;;5.87;3.90;;;10.70;47.40;;;;;;2566601;53;20952;-84
2022/04/23 05:08:37;;;;;;;6.50;3.87;;;10.70;47.50;;;;;;2593885;53;20978;-85
2022/04/23 05:11:04;;;;;;;6.43;4.32;;;10.70;47.60;;;;;;2594427;53;20968;-85
2022/04/23 05:13:31;;;;;;;6.70;4.35;;;10.70;47.70;;;;;;2349119;54;20892;-85
2022/04/23 05:15:58;;;;;;;5.85;3.92;;;10.80;47.80;;;;;;2593947;53;20995;-85
2022/04/23 05:18:24;;;;;;;5.90;4.30;;;10.80;48.00;;;;;;2594360;53;20980;-85
2022/04/23 05:20:51;;;;;;;6.25;3.95;;;10.80;48.10;;;;;;2594016;53;20923;-85
2022/04/23 05:23:17;;;;;;;8.57;5.10;;;10.90;48.20;;;;;;2349412;54;21867;-84
2022/04/23 05:25:44;;;;;;;7.45;4.65;;;10.90;48.30;;;;;;2594511;53;20971;-85
2022/04/23 05:28:10;;;;;;;7.37;5.22;;;11.00;48.60;;;;;;2349354;54;21071;-85
2022/04/23 05:30:37;;;;;;;8.23;5.62;;;11.00;48.60;;;;;;2564911;52;20947;-85
2022/04/23 05:33:07;;;;;;;8.38;5.55;;;11.10;48.80;;;;;;2578637;52;20955;-85
2022/04/23 05:35:34;;;;;;;7.07;5.10;;;11.20;49.00;;;;;;2583869;52;21376;-84
2022/04/23 05:38:00;;;;;;;8.07;5.30;;;11.20;48.90;;;;;;2566763;52;21861;-86
2022/04/23 05:40:27;;;;;;;7.75;5.35;;;11.30;49.00;;;;;;2595161;53;20943;-85
2022/04/23 05:42:58;;;;;;;10.00;6.45;;;11.40;49.10;;;;;;2348916;54;20959;-85
2022/04/23 05:45:28;;;;;;;7.87;5.62;;;11.40;49.10;;;;;;2595049;53;21091;-84
2022/04/23 05:47:55;;;;;;;8.35;6.00;;;11.50;49.20;;;;;;2594405;53;20920;-84
2022/04/23 05:50:22;;;;;;;8.57;6.00;;;11.60;49.30;;;;;;2593607;53;21462;-84
2022/04/23 05:52:49;;;;;;;11.27;6.60;;;11.70;49.50;;;;;;2591961;53;21445;-86
2022/04/23 05:55:16;;;;;;;7.53;5.87;;;11.70;49.50;;;;;;2591615;53;20931;-85
2022/04/23 05:57:42;;;;;;;8.02;6.12;;;11.80;49.60;;;;;;2592652;53;21055;-85
2022/04/23 06:00:10;;;;;;;9.00;6.30;;;11.90;49.60;;;;;;2589243;53;20924;-85
2022/04/23 06:02:36;;;;;;;8.20;5.90;;;12.00;49.70;;;;;;2566491;52;20971;-85
2022/04/23 06:05:03;;;;;;;9.07;7.28;;;12.10;49.70;;;;;;2591491;53;20944;-84
2022/04/23 06:07:29;;;;;;;10.35;7.80;;;12.20;49.70;;;;;;2592237;53;21057;-85
2022/04/23 06:09:56;;;;;;;11.85;7.97;;;12.30;49.70;;;;;;2592163;53;21909;-85
2022/04/23 06:12:23;;;;;;;11.70;7.90;;;12.40;49.70;;;;;;2591262;53;20956;-85
2022/04/23 06:14:50;;;;;;;11.77;7.53;;;12.40;49.60;;;;;;2347217;54;20971;-86
2022/04/23 06:17:25;;;;;;;10.32;8.18;;;12.60;49.70;;;;;;2346128;54;21434;-86
2022/04/23 06:19:52;;;;;;;9.90;7.45;;;12.60;49.70;;;;;;2581635;52;20963;-85
2022/04/23 06:22:19;;;;;;;10.05;6.97;;;12.70;49.60;;;;;;2577118;52;20968;-85
2022/04/23 06:24:46;;;;;;;9.07;6.80;;;12.70;49.60;;;;;;2593383;52;20983;-85
2022/04/23 06:27:12;;;;;;;10.00;7.05;;;12.80;49.60;;;;;;2592835;53;20984;-86
2022/04/23 06:29:39;;;;;;;8.68;6.37;;;12.90;49.80;;;;;;2578031;52;20995;-86
2022/04/23 06:32:07;;;;;;;9.38;7.07;;;12.90;49.80;;;;;;2589930;52;21007;-85
2022/04/23 06:34:34;;;;;;;9.43;7.32;;;13.00;49.90;;;;;;2343019;53;21566;-86
2022/04/23 06:37:00;;;;;;;7.93;6.07;;;13.20;50.00;;;;;;2592040;52;20968;-86
2022/04/23 06:39:27;;;;;;;10.20;7.45;;;13.20;50.00;;;;;;2564179;52;21756;-85
2022/04/23 06:41:53;;;;;;;10.40;7.37;;;13.30;50.00;;;;;;2594485;53;20920;-86
2022/04/23 06:44:19;;;;;;;9.63;7.37;;;13.50;49.90;;;;;;2594120;53;20923;-86
2022/04/23 06:46:46;;;;;;;9.80;7.57;;;13.60;49.90;;;;;;2593522;53;20926;-86
2022/04/23 06:49:12;;;;;;;9.30;7.47;;;13.60;49.80;;;;;;2567065;52;20991;-85
2022/04/23 06:51:40;;;;;;;9.90;7.20;;;13.80;49.90;;;;;;2594262;52;20988;-85
2022/04/23 06:54:07;;;;;;;10.60;8.10;;;13.80;49.80;;;;;;2348831;54;20960;-85
2022/04/23 06:56:34;;;;;;;9.27;6.62;;;13.90;50.00;;;;;;2350714;54;20936;-85
2022/04/23 06:59:00;;;;;;;10.23;7.50;;;14.00;50.00;;;;;;2595220;53;20936;-86
2022/04/23 07:01:27;;;;;;;11.27;8.45;;;14.10;49.90;;;;;;2595202;53;20896;-86
2022/04/23 07:03:54;;;;;;;11.68;8.18;;;14.20;49.70;;;;;;2345340;53;21022;-86
2022/04/23 07:06:20;;;;;;;10.57;7.62;;;14.30;49.60;;;;;;2333107;53;21426;-83
2022/04/23 07:08:46;;;;;;;12.02;7.62;;;14.40;49.60;;;;;;2349932;54;21371;-86
2022/04/23 07:11:13;;;;;;;9.73;7.53;;;14.40;49.60;;;;;;2597267;53;21403;-85
2022/04/23 07:13:39;;;;;;;9.90;7.68;;;14.50;49.70;;;;;;2590552;53;21007;-85
2022/04/23 07:16:05;;;;;;;10.32;7.93;;;14.60;49.80;;;;;;2330423;53;21323;-85
2022/04/23 07:18:32;;;;;;;11.05;7.47;;;14.70;49.80;;;;;;2590101;53;21047;-85
2022/04/23 07:20:59;;;;;;;11.35;8.10;;;14.80;49.70;;;;;;2569061;52;21101;-85
2022/04/23 07:26:11;;;;;;;10.98;7.75;;;14.90;49.50;;;;;;2593254;53;21011;-85
2022/04/23 07:28:38;;;;;;;10.52;7.65;;;15.00;49.50;;;;;;2593409;53;20967;-85
2022/04/23 07:31:05;;;;;;;10.27;7.87;;;15.10;49.40;;;;;;2347868;54;20971;-83
2022/04/23 07:39:01;;;;;;;9.73;7.75;;;15.30;49.30;;;;;;2346775;54;20983;-81
2022/04/23 07:41:27;;;;;;;10.02;7.60;;;15.40;49.30;;;;;;2592725;53;21039;-81
2022/04/23 07:43:54;;;;;;;10.18;7.50;;;15.50;49.50;;;;;;2590881;53;20948;-83
2022/04/23 07:46:21;;;;;;;10.02;7.50;;;15.60;49.50;;;;;;2326849;53;20997;-82
2022/04/23 07:48:47;;;;;;;10.25;7.62;;;15.60;49.40;;;;;;2592017;53;20979;-82
2022/04/23 07:51:16;;;;;;;9.68;8.25;;;15.70;49.40;;;;;;2592340;53;21035;-82
2022/04/23 07:53:42;;;;;;;10.55;7.45;;;15.80;49.50;;;;;;2345340;54;21270;-81
2022/04/23 07:56:09;;;;;;;10.73;7.82;;;15.90;49.50;;;;;;2345840;54;21015;-82
2022/04/23 07:58:35;;;;;;;12.45;7.28;;;16.00;49.60;;;;;;2591909;53;20963;-85
2022/04/23 08:01:02;;;;;;;11.27;8.02;;;16.10;49.70;;;;;;2592038;53;21043;-81
2022/04/23 08:03:31;;;;;;;11.07;8.45;;;16.20;49.50;;;;;;2590929;53;20993;-81
2022/04/23 08:05:57;;;;;;;9.82;7.93;;;16.30;49.30;;;;;;2345512;54;21049;-82
2022/04/23 08:08:24;;;;;;;9.18;6.75;;;16.60;49.40;;;;;;2592233;53;21059;-80
2022/04/23 08:10:50;;;;;;;10.82;7.82;;;16.50;49.20;;;;;;2345718;54;21027;-82
2022/04/23 08:13:17;;;;;;;9.85;7.32;;;16.60;49.20;;;;;;2327041;53;21264;-80
2022/04/23 08:15:44;;;;;;;9.43;7.50;;;16.70;49.10;;;;;;2339161;53;21062;-81
2022/04/23 08:18:11;;;;;;;18.00;8.07;;;16.80;49.10;;;;;;2575513;52;21023;-82
2022/04/23 08:20:41;;;;;;;9.75;7.50;;;16.90;49.20;;;;;;2345542;54;20936;-81
2022/04/23 08:23:10;;;;;;;10.55;7.68;;;16.90;49.10;;;;;;2591788;53;21024;-83
2022/04/23 08:25:37;;;;;;;10.15;7.72;;;17.00;49.00;;;;;;2592016;53;21908;-81
2022/04/23 08:30:48;;;;;;;9.90;7.28;;;17.20;48.80;;;;;;2345641;54;20980;-81
2022/04/23 08:33:15;;;;;;;13.55;7.93;;;17.20;48.70;;;;;;2345578;54;21057;-81
2022/04/23 08:35:42;;;;;;;10.30;7.72;;;17.30;48.80;;;;;;2591701;53;21012;-82
2022/04/23 08:38:08;;;;;;;10.02;7.68;;;17.40;48.80;;;;;;2588600;53;22292;-82
2022/04/23 08:40:36;;;;;;;8.55;7.00;;;17.40;48.70;;;;;;2564486;52;20968;-81
2022/04/23 08:43:02;;;;;;;9.82;7.30;;;17.50;48.70;;;;;;2591705;53;21011;-81
2022/04/23 08:45:40;;;;;;;9.88;7.87;;;17.60;48.60;;;;;;2591820;53;21596;-82
2022/04/23 08:48:11;;;;;;;9.85;7.65;;;17.60;48.50;;;;;;2348634;54;21038;-81
2022/04/23 08:50:38;;;;;;;9.18;7.20;;;17.70;48.40;;;;;;2326737;53;20940;-80
2022/04/23 08:53:16;;;;;;;9.38;6.87;;;17.70;48.40;;;;;;2593544;53;21011;-81
2022/04/23 08:55:46;;;;;;;7.93;6.50;;;17.80;48.50;;;;;;2593103;53;21440;-82
2022/04/23 08:58:17;;;;;;;8.77;6.97;;;17.90;48.50;;;;;;2582444;52;21010;-82
2022/04/23 09:00:44;;;;;;;9.07;7.37;;;18.00;48.50;;;;;;2576489;53;22022;-84
2022/04/23 09:03:14;;;;;;;9.95;7.05;;;18.00;48.50;;;;;;2350175;54;20993;-81
2022/04/23 09:05:40;;;;;;;9.85;7.90;;;18.10;48.50;;;;;;2592889;53;20912;-81
2022/04/23 09:08:10;;;;;;;11.10;7.57;;;18.20;48.60;;;;;;2593740;53;20967;-81
2022/04/23 09:10:44;;;;;;;10.68;7.32;;;18.30;48.80;;;;;;2347033;54;20915;-82
2022/04/23 09:13:11;;;;;;;10.10;6.95;;;18.40;48.70;;;;;;2593622;53;20971;-81
2022/04/23 09:24:13;;;;;;;7.70;6.57;;;18.90;48.50;;;;;;2593606;53;21681;-82
2022/04/23 09:26:40;;;;;;;10.70;7.32;;;19.00;48.50;;;;;;2344612;53;21393;-82
2022/04/23 09:29:17;;;;;;;9.43;7.05;;;19.10;48.50;;;;;;2573647;52;21295;-81
2022/04/23 09:31:44;;;;;;;8.88;7.12;;;19.20;48.40;;;;;;2347399;54;21709;-81
2022/04/23 09:34:17;;;;;;;9.18;6.85;;;19.30;48.20;;;;;;2347462;54;20948;-82
2022/04/23 09:36:52;;;;;;;8.95;6.47;;;19.40;47.90;;;;;;2594914;53;21498;-82
2022/04/23 09:39:30;;;;;;;9.15;6.90;;;19.50;47.80;;;;;;2348987;54;20967;-83
2022/04/23 09:42:19;;;;;;;11.40;6.60;;;19.50;47.70;;;;;;2593579;53;20984;-81
2022/04/23 09:44:46;;;;;;;7.95;6.53;;;19.60;47.50;;;;;;2347699;54;21731;-82
2022/04/23 09:47:29;;;;;;;9.07;6.78;;;19.70;47.30;;;;;;2347853;54;20924;-82
2022/04/23 09:49:56;;;;;;;8.50;6.53;;;19.70;46.90;;;;;;2347607;54;21406;-82
2022/04/23 09:52:29;;;;;;;8.88;6.75;;;19.80;47.00;;;;;;2593606;53;20985;-82
2022/04/23 09:55:09;;;;;;;8.68;6.20;;;19.80;47.00;;;;;;2349035;54;20997;-82
2022/04/23 09:57:37;;;;;;;8.50;6.35;;;19.90;47.10;;;;;;2328347;53;20951;-81
2022/04/23 10:00:04;;;;;;;9.07;6.40;;;19.90;47.00;;;;;;2578223;52;21762;-81
2022/04/23 10:02:31;;;;;;;7.20;5.60;;;19.90;46.90;;;;;;2588472;52;21751;-82
2022/04/23 10:04:57;;;;;;;9.73;7.00;;;20.00;46.90;;;;;;2328782;53;21027;-81
2022/04/23 10:07:24;;;;;;;8.77;6.47;;;20.10;46.90;;;;;;2590547;52;20991;-82
2022/04/23 10:09:50;;;;;;;8.38;6.35;;;20.10;46.50;;;;;;2346864;54;20940;-81
2022/04/23 10:12:18;;;;;;;9.38;6.47;;;20.10;46.40;;;;;;2347355;54;20920;-81
2022/04/23 10:14:56;;;;;;;9.23;6.30;;;20.10;46.40;;;;;;2346878;54;20928;-82
2022/04/23 10:17:23;;;;;;;9.00;5.87;;;20.10;46.30;;;;;;2593898;53;21493;-82
2022/04/23 10:19:49;;;;;;;8.43;6.00;;;20.20;46.30;;;;;;2593754;53;21011;-82
2022/04/23 10:22:21;;;;;;;7.65;5.90;;;20.20;46.30;;;;;;2347415;54;20940;-82
2022/04/23 10:26:48;;;;;;;8.50;6.53;;;20.20;46.20;;;;;;2572203;52;21404;-82
2022/04/23 10:29:15;;;;;;;8.60;5.40;;;20.30;46.40;;;;;;2347097;54;20956;-82
2022/04/23 10:31:42;;;;;;;6.50;4.80;;;20.40;46.40;;;;;;2322874;53;21041;-82
2022/04/23 10:34:30;;;;;;;7.65;5.18;;;20.50;46.40;;;;;;2573812;52;20940;-82
2022/04/23 10:37:14;;;;;;;7.12;5.37;;;20.50;46.10;;;;;;2345503;54;20991;-82
2022/04/23 10:39:42;;;;;;;6.70;4.97;;;20.60;46.10;;;;;;2592584;53;20936;-82
2022/04/23 10:42:14;;;;;;;7.43;5.15;;;20.60;46.20;;;;;;2341433;53;21002;-80
2022/04/23 10:44:43;;;;;;;9.52;5.62;;;20.70;46.20;;;;;;2333570;53;21059;-82
2022/04/23 10:47:30;;;;;;;7.50;5.47;;;20.80;46.10;;;;;;2568659;52;20960;-80
2022/04/23 10:53:30;;;;;;;7.43;5.62;;;21.00;45.80;;;;;;2565354;53;21007;-81
2022/04/23 10:57:00;;;;;;;8.90;5.75;;;21.20;45.90;;;;;;2348948;54;20936;-82
2022/04/23 10:59:33;;;;;;;8.85;5.65;;;21.30;45.50;;;;;;2591405;53;21414;-82
2022/04/23 11:02:06;;;;;;;7.53;5.68;;;21.30;45.30;;;;;;2563891;52;21032;-82
2022/04/23 11:12:14;;;;;;;7.70;5.70;;;21.40;45.00;;;;;;2592104;53;20959;-82
2022/04/23 11:12:14;;;;;;;5.80;3.80;;;21.40;44.80;;;;;;2592529;53;21039;-81
2022/04/23 11:14:45;;;;;;;5.40;3.70;;;21.50;44.80;;;;;;2592388;53;20943;-82
2022/04/23 11:17:58;;;;;;;6.80;4.87;;;21.50;44.60;;;;;;2592639;53;20943;-81
2022/04/23 11:20:29;;;;;;;7.22;4.22;;;21.50;44.50;;;;;;2593565;53;21018;-84
2022/04/23 11:22:57;;;;;;;6.00;4.47;;;21.60;44.70;;;;;;2567078;52;21006;-83
2022/04/23 11:25:23;;;;;;;6.20;4.53;;;21.70;44.80;;;;;;2592491;53;22339;-83
2022/04/23 11:27:50;;;;;;;6.85;4.43;;;21.60;44.60;;;;;;2346584;54;20975;-83
2022/04/23 11:30:26;;;;;;;6.12;4.20;;;21.70;44.60;;;;;;2594160;53;20935;-84
2022/04/23 11:32:52;;;;;;;6.40;4.65;;;21.80;44.50;;;;;;2595127;53;21486;-84
2022/04/23 11:35:28;;;;;;;6.12;4.53;;;21.80;44.30;;;;;;2595437;53;20912;-82
2022/04/23 11:37:56;;;;;;;6.60;4.65;;;21.80;43.80;;;;;;2595309;53;20928;-84
2022/04/23 11:40:28;;;;;;;7.05;5.07;;;21.80;43.90;;;;;;2595519;53;20952;-82
2022/04/23 11:42:54;;;;;;;7.35;4.93;;;21.80;43.70;;;;;;2594914;53;20920;-84
2022/04/23 11:45:23;;;;;;;6.60;4.60;;;21.80;43.50;;;;;;2349120;54;20940;-82
2022/04/23 11:47:51;;;;;;;5.70;4.32;;;21.80;43.50;;;;;;2348307;54;20920;-82
2022/04/23 11:50:22;;;;;;;5.93;4.35;;;21.80;43.50;;;;;;2594648;53;21395;-83
2022/04/23 11:52:59;;;;;;;7.00;4.57;;;21.70;43.50;;;;;;2594731;53;20960;-84
2022/04/23 11:55:26;;;;;;;6.10;4.50;;;21.70;43.20;;;;;;2594771;53;20937;-84
2022/04/23 11:58:00;;;;;;;5.60;4.18;;;21.70;43.20;;;;;;2595162;53;20929;-85
2022/04/23 12:00:27;;;;;;;6.28;4.55;;;21.60;42.90;;;;;;2594254;53;21864;-83
2022/04/23 12:02:54;;;;;;;5.70;4.40;;;21.60;42.90;;;;;;2593644;53;21019;-82
2022/04/23 12:05:22;;;;;;;5.65;4.37;;;21.60;43.00;;;;;;2594168;53;20908;-82
2022/04/23 12:07:48;;;;;;;5.43;3.90;;;21.50;43.00;;;;;;2594022;53;20976;-82
2022/04/23 12:10:15;;;;;;;7.45;4.57;;;21.50;43.00;;;;;;2594392;53;21806;-82
2022/04/23 12:12:50;;;;;;;6.78;4.80;;;21.50;43.10;;;;;;2347313;54;20980;-82
2022/04/23 12:15:16;;;;;;;5.10;3.53;;;21.40;43.00;;;;;;2593874;53;20948;-81
2022/04/23 12:17:49;;;;;;;6.50;4.68;;;21.40;43.10;;;;;;2346662;54;21019;-81
2022/04/23 12:20:25;;;;;;;7.68;4.15;;;21.40;43.20;;;;;;2594048;53;20983;-83
2022/04/23 12:23:06;;;;;;;5.35;3.78;;;21.40;43.30;;;;;;2590953;53;21016;-83
2022/04/23 12:25:36;;;;;;;5.37;3.95;;;21.40;43.40;;;;;;2540611;53;20932;-81
2022/04/23 12:42:30;;;;;;;6.70;4.50;;;21.50;43.40;;;;;;2577112;52;20935;-81
2022/04/23 12:44:57;;;;;;;5.78;3.72;;;21.50;43.20;;;;;;2594473;53;20900;-82
2022/04/23 12:47:42;;;;;;;6.80;4.22;;;21.50;43.10;;;;;;2593925;53;21916;-83
2022/04/23 12:50:08;;;;;;;5.75;3.97;;;21.50;43.10;;;;;;2593940;53;20904;-83
2022/04/23 12:52:53;;;;;;;6.30;4.40;;;21.50;43.00;;;;;;2594183;53;20931;-83
2022/04/23 12:55:29;;;;;;;5.45;3.72;;;21.50;42.70;;;;;;2593851;53;20919;-82
2022/04/23 12:58:05;;;;;;;6.05;3.87;;;21.40;42.70;;;;;;2593726;53;20928;-83
2022/04/23 13:00:33;;;;;;;6.18;4.55;;;21.40;42.60;;;;;;2346166;54;21791;-84
2022/04/23 13:03:08;;;;;;;6.12;4.37;;;21.30;42.60;;;;;;2593606;53;20952;-81
2022/04/23 13:05:34;;;;;;;7.82;4.28;;;21.30;42.60;;;;;;2593628;53;20978;-83
2022/04/23 13:10:45;;;;;;;6.07;3.87;;;21.20;42.80;;;;;;2592737;53;20920;-82
2022/04/23 13:13:12;;;;;;;5.93;4.20;;;21.20;42.90;;;;;;2594146;53;21376;-83
2022/04/23 13:15:39;;;;;;;5.85;4.00;;;21.10;43.00;;;;;;2593815;53;20907;-82
2022/04/23 13:18:05;;;;;;;6.50;4.05;;;21.10;43.00;;;;;;2593321;53;20963;-81
2022/04/23 13:20:32;;;;;;;6.10;3.62;;;21.10;43.00;;;;;;2347126;54;20972;-84
2022/04/23 13:22:59;;;;;;;5.18;3.50;;;21.10;43.00;;;;;;2346466;54;21462;-83
2022/04/23 13:25:26;;;;;;;4.35;2.90;;;21.00;43.10;;;;;;2593399;53;20928;-83
2022/04/23 13:27:52;;;;;;;6.82;4.05;;;21.00;43.10;;;;;;2593876;53;20961;-83
2022/04/23 13:30:19;;;;;;;4.32;3.22;;;21.00;43.10;;;;;;2346330;54;21803;-81
2022/04/23 13:32:46;;;;;;;5.20;3.70;;;21.00;43.10;;;;;;2593794;53;20948;-81
2022/04/23 13:35:14;;;;;;;5.72;3.58;;;21.00;43.00;;;;;;2346587;54;21050;-82
2022/04/23 13:37:41;;;;;;;4.90;3.15;;;21.00;42.90;;;;;;2592605;53;20936;-82
2022/04/23 13:40:08;;;;;;;5.40;3.47;;;21.00;42.80;;;;;;2568215;52;20915;-83
2022/04/23 13:42:35;;;;;;;4.97;3.17;;;20.90;42.70;;;;;;2591891;52;20947;-82